Time;durP1;ratioP1;P1;durP2;ratioP2;P2;SDS_P1;SDS_P2;PMS_P1;PMS_P2;Temp;Humidity;BMP_temperature;BMP_pressure;BME280_temperature;BME280_humidity;BME280_pressure;Samples;Min_cycle;Max_cycle;Signal;HPM_P1;HPM_P2
2023/05/24 00:01:24;;;;;;;0.70;0.70;;;;;;;19.41;100.00;99880.44;5049263;28;20202;-74
2023/05/24 00:03:51;;;;;;;0.70;0.70;;;;;;;19.26;100.00;99861.50;5049502;28;20219;-74
2023/05/24 00:06:17;;;;;;;0.70;0.70;;;;;;;19.29;100.00;99879.84;5048091;28;20196;-74
2023/05/24 00:08:46;;;;;;;0.70;0.70;;;;;;;19.31;100.00;99872.78;5048315;28;20212;-75
2023/05/24 00:11:13;;;;;;;0.60;0.60;;;;;;;19.26;100.00;99877.25;5052152;28;20662;-74
2023/05/24 00:13:39;;;;;;;0.70;0.70;;;;;;;19.17;100.00;99871.38;5053120;28;20200;-75
2023/05/24 00:16:06;;;;;;;0.60;0.60;;;;;;;19.05;100.00;99872.50;5052129;28;20717;-75
2023/05/24 00:18:33;;;;;;;0.60;0.60;;;;;;;19.00;100.00;99869.13;5052194;28;20225;-75
2023/05/24 00:21:00;;;;;;;0.60;0.60;;;;;;;18.92;100.00;99854.44;5051345;28;20219;-75
2023/05/24 00:23:26;;;;;;;0.60;0.60;;;;;;;18.96;100.00;99867.47;5052807;28;20227;-74
2023/05/24 00:25:55;;;;;;;0.70;0.70;;;;;;;19.08;100.00;99877.72;5052616;28;20658;-75
2023/05/24 00:28:21;;;;;;;0.63;0.63;;;;;;;18.90;100.00;99857.09;5051745;28;20207;-75
2023/05/24 00:30:49;;;;;;;0.68;0.68;;;;;;;19.02;100.00;99861.19;5051971;28;20282;-75
2023/05/24 00:33:16;;;;;;;0.70;0.70;;;;;;;19.01;100.00;99860.38;5052626;28;20322;-75
2023/05/24 00:35:43;;;;;;;0.70;0.70;;;;;;;18.96;100.00;99858.72;5017725;28;20199;-75
2023/05/24 00:38:10;;;;;;;0.70;0.70;;;;;;;18.94;100.00;99858.75;5049233;28;20200;-75
2023/05/24 00:40:37;;;;;;;0.70;0.70;;;;;;;18.89;100.00;99852.75;5033677;28;20204;-74
2023/05/24 00:43:05;;;;;;;0.70;0.70;;;;;;;18.92;100.00;99857.06;5051372;28;20616;-74
2023/05/24 00:45:31;;;;;;;0.70;0.70;;;;;;;18.68;100.00;99829.56;5052239;28;20215;-74
2023/05/24 00:47:59;;;;;;;0.65;0.65;;;;;;;18.84;100.00;99862.47;5052049;28;20210;-74
2023/05/24 00:50:26;;;;;;;0.70;0.70;;;;;;;18.79;100.00;99853.84;5052567;28;20651;-74
2023/05/24 00:52:52;;;;;;;0.60;0.60;;;;;;;18.72;100.00;99857.50;5051452;28;20204;-74
2023/05/24 00:55:20;;;;;;;0.80;0.80;;;;;;;18.74;100.00;99859.19;5051835;28;20204;-74
2023/05/24 00:57:47;;;;;;;0.80;0.80;;;;;;;18.71;100.00;99855.78;5050575;28;20223;-75
2023/05/24 01:00:15;;;;;;;0.70;0.70;;;;;;;18.73;100.00;99859.22;5032449;28;20257;-75
2023/05/24 01:02:42;;;;;;;0.63;0.63;;;;;;;18.59;100.00;99862.13;5017176;28;20219;-75
2023/05/24 01:05:12;;;;;;;0.80;0.80;;;;;;;18.54;100.00;99852.66;5050264;28;20269;-75
2023/05/24 01:07:48;;;;;;;0.77;0.77;;;;;;;18.63;100.00;99863.81;5050799;28;20572;-75
2023/05/24 01:10:22;;;;;;;0.77;0.77;;;;;;;18.61;100.00;99870.88;5015299;28;20294;-75
2023/05/24 01:12:55;;;;;;;0.80;0.80;;;;;;;18.58;100.00;99872.69;5049035;28;20200;-75
2023/05/24 01:15:32;;;;;;;0.70;0.70;;;;;;;18.49;100.00;99859.72;5050026;28;20203;-75
2023/05/24 01:18:05;;;;;;;0.70;0.70;;;;;;;17.94;100.00;99776.00;5050245;28;20199;-75
2023/05/24 01:20:36;;;;;;;0.70;0.70;;;;;;;18.38;100.00;99861.69;5050058;28;20212;-75
2023/05/24 01:23:31;;;;;;;0.73;0.73;;;;;;;18.42;100.00;99852.84;5051179;28;20669;-75
2023/05/24 01:26:19;;;;;;;0.80;0.80;;;;;;;18.36;100.00;99853.00;5051076;28;20301;-74
2023/05/24 01:28:48;;;;;;;0.80;0.80;;;;;;;18.28;100.00;99861.88;5048993;28;20208;-75
2023/05/24 01:31:17;;;;;;;0.70;0.70;;;;;;;18.22;100.00;99861.13;5050771;28;21046;-75
2023/05/24 01:33:45;;;;;;;0.80;0.80;;;;;;;18.06;100.00;99844.81;5051204;28;20242;-74
2023/05/24 01:36:12;;;;;;;0.70;0.70;;;;;;;18.13;100.00;99859.56;5050602;28;20203;-74
2023/05/24 01:38:39;;;;;;;0.70;0.70;;;;;;;18.11;100.00;99869.22;5050730;28;20623;-75
2023/05/24 01:41:15;;;;;;;0.80;0.80;;;;;;;18.14;100.00;99866.53;5051657;28;20844;-75
2023/05/24 01:43:52;;;;;;;0.80;0.80;;;;;;;18.06;100.00;99850.06;5050741;28;20237;-75
2023/05/24 01:46:25;;;;;;;0.80;0.80;;;;;;;18.12;100.00;99860.44;5040520;28;20675;-74
2023/05/24 01:49:01;;;;;;;0.77;0.77;;;;;;;18.08;100.00;99861.41;5049176;28;20200;-75
2023/05/24 01:51:35;;;;;;;0.90;0.90;;;;;;;18.02;100.00;99872.00;5050798;28;20213;-75
2023/05/24 01:54:04;;;;;;;0.70;0.70;;;;;;;18.10;100.00;99871.88;5050207;28;20191;-75
2023/05/24 01:56:32;;;;;;;0.90;0.90;;;;;;;18.15;100.00;99876.16;5051174;28;20273;-75
2023/05/24 01:59:02;;;;;;;0.90;0.90;;;;;;;18.05;100.00;99882.44;5049562;28;20271;-75
2023/05/24 02:01:30;;;;;;;0.77;0.77;;;;;;;17.85;100.00;99881.94;5051007;28;20203;-75
2023/05/24 02:03:57;;;;;;;0.68;0.68;;;;;;;17.78;100.00;99886.44;5050142;28;20220;-75
2023/05/24 02:06:24;;;;;;;0.60;0.60;;;;;;;17.78;100.00;99890.81;5050037;28;20273;-74
2023/05/24 02:08:52;;;;;;;0.70;0.70;;;;;;;17.76;100.00;99898.69;5047917;28;20678;-75
2023/05/24 02:11:19;;;;;;;0.80;0.80;;;;;;;17.79;100.00;99882.94;5050371;28;20196;-75
2023/05/24 02:13:46;;;;;;;0.80;0.80;;;;;;;17.79;100.00;99896.03;5015020;28;20203;-74
2023/05/24 02:16:14;;;;;;;0.70;0.70;;;;;;;17.80;100.00;99884.63;5050183;28;20207;-75
2023/05/24 02:18:43;;;;;;;0.70;0.70;;;;;;;17.61;100.00;99874.50;5043409;28;20203;-74
2023/05/24 02:21:10;;;;;;;0.77;0.77;;;;;;;17.71;100.00;99895.31;5050052;28;20207;-75
2023/05/24 02:23:37;;;;;;;0.80;0.80;;;;;;;17.68;100.00;99891.88;5049682;28;20227;-75
2023/05/24 02:26:04;;;;;;;0.80;0.80;;;;;;;17.70;100.00;99885.69;5050777;28;20199;-75
2023/05/24 02:28:31;;;;;;;0.80;0.80;;;;;;;17.43;100.00;99851.19;5050392;28;20203;-74
2023/05/24 02:30:58;;;;;;;0.80;0.80;;;;;;;17.56;100.00;99869.31;5050237;28;20650;-77
2023/05/24 02:33:28;;;;;;;0.70;0.70;;;;;;;17.64;100.00;99882.31;5049011;28;20313;-74
2023/05/24 02:35:55;;;;;;;0.73;0.73;;;;;;;17.43;100.00;99859.03;5048548;28;20195;-75
2023/05/24 02:38:22;;;;;;;0.80;0.80;;;;;;;17.54;100.00;99875.47;5050100;28;20199;-75
2023/05/24 02:40:49;;;;;;;0.80;0.80;;;;;;;17.48;100.00;99868.53;5049630;28;20199;-74
2023/05/24 02:43:16;;;;;;;0.70;0.70;;;;;;;17.33;100.00;99851.34;5049092;28;20235;-76
2023/05/24 02:45:43;;;;;;;0.70;0.70;;;;;;;17.45;100.00;99875.59;5050223;28;20214;-75
2023/05/24 02:48:09;;;;;;;0.90;0.90;;;;;;;17.51;100.00;99880.75;5050129;28;20196;-74
2023/05/24 02:50:38;;;;;;;0.80;0.80;;;;;;;17.57;100.00;99881.56;5049193;28;20246;-75
2023/05/24 02:53:04;;;;;;;0.70;0.70;;;;;;;17.35;100.00;99859.16;5049711;28;20210;-74
2023/05/24 02:55:32;;;;;;;0.80;0.80;;;;;;;17.47;100.00;99887.81;5049516;28;20636;-75
2023/05/24 02:57:59;;;;;;;0.70;0.70;;;;;;;17.45;100.00;99875.59;5049018;28;20219;-75
2023/05/24 03:00:26;;;;;;;0.95;0.95;;;;;;;17.49;100.00;99883.41;5047613;28;20195;-75
2023/05/24 03:02:54;;;;;;;0.80;0.80;;;;;;;17.51;100.00;99886.00;5049165;28;20202;-75
2023/05/24 03:05:21;;;;;;;0.80;0.80;;;;;;;17.60;100.00;99896.34;5049136;28;20199;-74
2023/05/24 03:07:49;;;;;;;0.95;0.95;;;;;;;17.65;100.00;99882.31;5044991;28;20282;-74
2023/05/24 03:10:16;;;;;;;0.95;0.95;;;;;;;17.86;100.00;99888.94;5048424;28;20214;-74
2023/05/24 03:12:42;;;;;;;0.80;0.80;;;;;;;17.91;100.00;99894.09;5048813;28;20211;-75
2023/05/24 03:15:10;;;;;;;0.90;0.90;;;;;;;17.93;100.00;99895.78;5048670;28;20214;-74
2023/05/24 03:17:37;;;;;;;0.90;0.90;;;;;;;17.78;100.00;99885.56;5047192;28;20191;-78
2023/05/24 03:20:05;;;;;;;0.80;0.80;;;;;;;17.88;100.00;99892.38;5048250;28;20204;-74
2023/05/24 03:22:32;;;;;;;1.00;1.00;;;;;;;17.99;100.00;99886.94;5048330;28;20268;-73
2023/05/24 03:25:00;;;;;;;1.23;1.23;;;;;;;18.33;100.00;99888.88;5049324;28;20269;-74
2023/05/24 03:27:27;;;;;;;0.90;0.90;;;;;;;18.55;100.00;99891.16;5049348;28;20207;-74
2023/05/24 03:29:54;;;;;;;0.80;0.80;;;;;;;18.97;100.00;99892.88;5029423;28;20199;-77
2023/05/24 03:32:20;;;;;;;0.82;0.82;;;;;;;19.54;100.00;99892.44;5017018;28;20230;-72
2023/05/24 03:34:47;;;;;;;0.80;0.80;;;;;;;19.92;100.00;99894.97;5047653;28;20200;-72
2023/05/24 03:37:14;;;;;;;0.90;0.90;;;;;;;20.53;100.00;99917.03;5046104;28;20196;-71
2023/05/24 03:39:40;;;;;;;0.90;0.90;;;;;;;21.10;100.00;99917.09;5046439;28;20224;-72
2023/05/24 03:42:09;;;;;;;0.80;0.80;;;;;;;21.73;100.00;99906.28;5013254;28;20218;-73
2023/05/24 03:44:35;;;;;;;0.90;0.90;;;;;;;22.26;100.00;99914.22;5031762;28;20306;-71
2023/05/24 03:47:02;;;;;;;0.90;0.90;;;;;;;22.95;94.83;99913.44;5033595;28;20658;-73
2023/05/24 03:49:29;;;;;;;0.80;0.80;;;;;;;23.24;91.74;99889.34;5045825;28;20257;-72
2023/05/24 03:51:56;;;;;;;0.80;0.80;;;;;;;23.81;85.95;99915.28;5049190;28;20257;-72
2023/05/24 03:54:22;;;;;;;0.93;0.93;;;;;;;24.32;82.08;99921.97;5017243;28;20278;-70
2023/05/24 03:56:52;;;;;;;0.85;0.85;;;;;;;24.86;82.79;99923.97;5052332;28;20212;-66
2023/05/24 03:59:20;;;;;;;0.80;0.80;;;;;;;25.21;74.92;99927.63;5052384;28;20206;-71
2023/05/24 04:01:47;;;;;;;0.88;0.88;;;;;;;25.46;73.50;99939.66;5051174;28;20560;-70
2023/05/24 04:04:14;;;;;;;0.90;0.90;;;;;;;25.42;72.11;99903.56;5052463;28;20235;-71
2023/05/24 04:06:40;;;;;;;0.70;0.70;;;;;;;25.73;71.40;99939.28;5052269;28;20208;-68
2023/05/24 04:09:08;;;;;;;0.90;0.90;;;;;;;25.88;69.27;99946.50;5052274;28;20679;-71
2023/05/24 04:11:35;;;;;;;0.70;0.70;;;;;;;26.08;65.13;99923.28;5051588;28;20722;-71
2023/05/24 04:14:02;;;;;;;0.80;0.80;;;;;;;26.30;63.78;99946.13;5053061;28;20576;-71
2023/05/24 04:16:32;;;;;;;1.30;1.30;;;;;;;26.51;67.13;99951.19;5053604;28;20222;-79
2023/05/24 04:19:00;;;;;;;0.80;0.80;;;;;;;26.39;62.86;99948.34;5032846;28;20207;-73
2023/05/24 04:21:27;;;;;;;0.95;0.95;;;;;;;26.00;63.28;99925.50;5047756;28;20204;-73
2023/05/24 04:23:54;;;;;;;0.90;0.90;;;;;;;26.06;63.29;99950.88;5033608;28;20218;-76
2023/05/24 04:26:21;;;;;;;1.42;1.33;;;;;;;26.22;62.85;99951.00;5052876;28;20605;-72
2023/05/24 04:28:48;;;;;;;0.90;0.90;;;;;;;26.66;62.89;99961.97;5052062;28;20290;-68
2023/05/24 04:31:15;;;;;;;0.80;0.80;;;;;;;26.73;60.94;99961.56;5050439;28;20215;-69
2023/05/24 04:33:43;;;;;;;0.90;0.90;;;;;;;26.82;59.24;99934.53;5016384;28;20320;-70
2023/05/24 04:36:12;;;;;;;0.93;0.93;;;;;;;26.90;59.25;99964.22;5049628;28;20238;-69
2023/05/24 04:38:39;;;;;;;0.77;0.77;;;;;;;26.70;58.62;99948.44;5050279;28;20203;-68
2023/05/24 04:41:07;;;;;;;0.85;0.85;;;;;;;26.77;58.73;99957.81;5050621;28;20828;-69
2023/05/24 04:43:34;;;;;;;1.90;1.80;;;;;;;26.92;61.29;99951.69;5051710;28;20218;-70
2023/05/24 04:46:01;;;;;;;0.70;0.70;;;;;;;27.43;63.24;99957.78;5051077;28;20564;-69
2023/05/24 04:48:28;;;;;;;0.70;0.70;;;;;;;27.94;56.53;99960.13;5051145;28;20207;-69
2023/05/24 04:50:57;;;;;;;1.17;1.17;;;;;;;28.40;55.15;99965.44;5049588;28;20203;-69
2023/05/24 04:53:25;;;;;;;0.88;0.88;;;;;;;28.47;55.19;99972.13;5051149;28;20237;-70
2023/05/24 04:55:52;;;;;;;1.60;1.60;;;;;;;28.62;54.71;99967.66;5051366;28;20234;-75
2023/05/24 04:58:19;;;;;;;0.80;0.80;;;;;;;28.39;54.50;99961.94;5047866;28;20293;-72
2023/05/24 05:00:46;;;;;;;1.20;1.20;;;;;;;28.30;54.89;99970.47;5050422;28;20199;-74
2023/05/24 05:03:13;;;;;;;0.80;0.80;;;;;;;28.61;54.56;99977.47;5049222;28;20191;-78
2023/05/24 05:05:40;;;;;;;0.90;0.90;;;;;;;28.34;55.96;99964.00;5026761;28;20235;-70
2023/05/24 05:08:08;;;;;;;0.70;0.70;;;;;;;28.64;54.05;99980.00;5048807;28;20211;-72
2023/05/24 05:10:35;;;;;;;1.75;1.60;;;;;;;28.61;54.35;99977.47;5048063;28;20199;-71
2023/05/24 05:13:02;;;;;;;0.75;0.75;;;;;;;28.49;53.94;99951.56;5052584;28;20222;-73
2023/05/24 05:15:29;;;;;;;0.80;0.80;;;;;;;28.75;53.27;99985.56;5033418;28;20207;-71
2023/05/24 05:17:56;;;;;;;0.65;0.65;;;;;;;28.56;53.13;99984.94;5048831;28;20202;-71
2023/05/24 05:20:23;;;;;;;0.80;0.80;;;;;;;28.73;53.47;99986.59;5059162;28;20203;-72
2023/05/24 05:22:49;;;;;;;0.90;0.90;;;;;;;28.89;52.93;99998.94;5051718;28;20697;-75
2023/05/24 05:25:18;;;;;;;0.70;0.70;;;;;;;28.66;53.02;99980.75;5051401;28;20630;-72
2023/05/24 05:27:44;;;;;;;0.70;0.70;;;;;;;28.31;53.16;100000.69;5051391;28;20203;-73
2023/05/24 05:30:12;;;;;;;0.73;0.73;;;;;;;27.52;55.84;99998.09;5050869;28;20309;-72
2023/05/24 05:32:39;;;;;;;0.88;0.88;;;;;;;27.49;55.88;99992.94;5030778;28;20234;-72
2023/05/24 05:35:07;;;;;;;0.63;0.63;;;;;;;27.45;55.93;99983.41;5044088;28;20249;-73
2023/05/24 05:37:33;;;;;;;0.80;0.80;;;;;;;27.38;56.69;99982.00;5049162;28;20207;-70
2023/05/24 05:40:00;;;;;;;0.82;0.82;;;;;;;27.52;56.72;99999.91;5031701;28;20196;-68
2023/05/24 05:42:28;;;;;;;0.80;0.80;;;;;;;27.31;57.21;100001.91;5050634;28;20224;-69
2023/05/24 05:44:55;;;;;;;0.70;0.70;;;;;;;27.11;58.06;100000.31;5050372;28;20285;-72
2023/05/24 05:47:22;;;;;;;0.65;0.65;;;;;;;26.51;60.52;99987.56;5050117;28;21794;-70
2023/05/24 05:49:48;;;;;;;0.70;0.70;;;;;;;26.37;63.72;100001.59;5040905;28;20702;-72
2023/05/24 05:52:15;;;;;;;0.80;0.80;;;;;;;26.17;67.24;100003.50;5047421;28;20594;-70
2023/05/24 05:54:42;;;;;;;0.70;0.70;;;;;;;26.14;66.17;99991.22;5050080;28;20666;-69
2023/05/24 05:57:10;;;;;;;0.70;0.70;;;;;;;26.26;66.49;100003.06;5051289;28;20206;-72
2023/05/24 05:59:38;;;;;;;0.80;0.80;;;;;;;26.68;65.41;100014.19;5046174;28;20204;-71
2023/05/24 06:02:06;;;;;;;0.60;0.60;;;;;;;26.91;64.08;100005.88;5049503;28;20202;-71
2023/05/24 06:04:33;;;;;;;1.23;1.05;;;;;;;27.15;63.43;100016.16;5059321;28;20724;-72
2023/05/24 06:06:59;;;;;;;0.80;0.80;;;;;;;27.17;62.65;100019.59;5035439;28;20253;-70
2023/05/24 06:09:26;;;;;;;0.80;0.80;;;;;;;26.43;64.83;100016.38;5031260;28;20206;-72
2023/05/24 06:11:53;;;;;;;0.88;0.88;;;;;;;25.91;69.14;100018.94;5034339;28;20210;-71
2023/05/24 06:14:21;;;;;;;1.00;1.00;;;;;;;25.72;70.24;100003.97;5050410;28;20284;-71
2023/05/24 06:16:51;;;;;;;1.00;1.00;;;;;;;25.66;74.20;100023.72;5048911;28;20238;-71
2023/05/24 06:19:18;;;;;;;1.00;1.00;;;;;;;25.17;75.70;100025.97;5043768;28;20210;-71
2023/05/24 06:21:46;;;;;;;1.00;1.00;;;;;;;25.21;77.64;100026.69;5049484;28;20211;-73
2023/05/24 06:24:14;;;;;;;1.30;1.30;;;;;;;24.84;81.22;99994.78;5010487;28;20207;-73
2023/05/24 06:26:41;;;;;;;0.82;0.82;;;;;;;24.99;80.95;100024.16;5046974;28;20206;-73
2023/05/24 06:29:08;;;;;;;0.75;0.75;;;;;;;24.81;83.04;100022.28;5049779;28;20648;-73
2023/05/24 06:31:35;;;;;;;0.70;0.70;;;;;;;24.56;86.73;100016.31;5045309;28;20223;-73
2023/05/24 06:34:03;;;;;;;0.60;0.60;;;;;;;24.50;88.35;100022.75;5051109;28;20203;-73
2023/05/24 06:36:32;;;;;;;0.70;0.70;;;;;;;24.36;91.40;100017.19;5050612;28;20210;-74
2023/05/24 06:39:00;;;;;;;0.75;0.75;;;;;;;24.55;90.29;100026.06;5050733;28;20212;-72
2023/05/24 06:41:27;;;;;;;0.60;0.60;;;;;;;24.52;88.73;100014.72;5049850;28;20201;-72
2023/05/24 06:43:53;;;;;;;0.65;0.65;;;;;;;24.40;89.76;100023.22;5050036;28;20204;-73
2023/05/24 06:46:20;;;;;;;0.77;0.77;;;;;;;24.01;96.24;99993.88;5049631;28;20227;-73
2023/05/24 06:48:47;;;;;;;0.70;0.70;;;;;;;23.98;94.12;99996.66;5049807;28;20219;-73
2023/05/24 06:51:16;;;;;;;0.90;0.90;;;;;;;24.17;92.32;100011.78;5050307;28;20199;-73
2023/05/24 06:53:42;;;;;;;0.70;0.70;;;;;;;24.26;91.35;100018.47;5050284;28;20195;-72
2023/05/24 06:56:09;;;;;;;0.95;0.95;;;;;;;24.43;90.01;100013.34;5050210;28;20689;-73
2023/05/24 06:58:36;;;;;;;0.70;0.70;;;;;;;24.31;92.10;100005.03;5048977;28;20666;-71
2023/05/24 07:01:04;;;;;;;1.30;1.20;;;;;;;24.53;91.25;100011.16;5050322;28;20688;-72
2023/05/24 07:03:30;;;;;;;0.60;0.60;;;;;;;24.57;90.20;100010.09;5049097;28;20273;-68
2023/05/24 07:05:57;;;;;;;0.70;0.70;;;;;;;24.50;92.22;100016.59;5050085;28;20306;-69
2023/05/24 07:08:26;;;;;;;0.85;0.85;;;;;;;24.56;92.43;100016.31;5062944;28;20282;-69
2023/05/24 07:10:53;;;;;;;0.70;0.70;;;;;;;24.64;92.98;100000.94;5056374;28;20202;-69
2023/05/24 07:13:20;;;;;;;0.70;0.70;;;;;;;24.75;90.96;100008.44;5070262;28;20195;-68
2023/05/24 07:15:47;;;;;;;0.70;0.70;;;;;;;24.81;92.62;100013.47;5063032;28;20207;-67
2023/05/24 07:18:14;;;;;;;0.63;0.63;;;;;;;24.45;92.14;100002.66;5050818;28;20211;-67
2023/05/24 07:20:41;;;;;;;0.63;0.63;;;;;;;24.42;93.88;100014.28;5015121;28;20199;-70
2023/05/24 07:23:08;;;;;;;0.60;0.60;;;;;;;24.44;93.99;100011.53;5057618;28;20203;-68
2023/05/24 07:25:36;;;;;;;0.80;0.80;;;;;;;24.67;92.97;100019.38;5018630;28;20226;-72
2023/05/24 07:28:03;;;;;;;0.82;0.82;;;;;;;24.40;94.62;100009.97;5053889;28;20195;-71
2023/05/24 07:30:30;;;;;;;0.80;0.80;;;;;;;24.48;93.88;100015.78;5041039;28;20195;-72
2023/05/24 07:32:57;;;;;;;0.63;0.63;;;;;;;24.71;92.51;100013.00;5062818;28;20782;-73
2023/05/24 07:35:24;;;;;;;0.80;0.80;;;;;;;24.97;90.68;100010.06;5039598;28;20202;-72
2023/05/24 07:37:50;;;;;;;0.60;0.60;;;;;;;24.91;90.32;100015.66;5060384;28;20264;-73
2023/05/24 07:40:17;;;;;;;0.77;0.77;;;;;;;24.75;91.33;100014.59;5038400;28;20298;-73
2023/05/24 07:42:46;;;;;;;0.60;0.60;;;;;;;24.35;93.52;100007.50;5058932;28;20211;-74
2023/05/24 07:45:13;;;;;;;0.70;0.70;;;;;;;24.36;95.73;99998.63;5061871;28;20247;-74
2023/05/24 07:47:40;;;;;;;0.60;0.60;;;;;;;24.89;94.15;100025.50;5034671;28;20290;-74
2023/05/24 07:50:07;;;;;;;0.90;0.90;;;;;;;25.11;89.67;100025.41;5059821;28;20837;-73
2023/05/24 07:52:34;;;;;;;0.60;0.60;;;;;;;25.32;87.57;100034.16;5013185;28;20200;-74
2023/05/24 07:55:01;;;;;;;0.70;0.70;;;;;;;25.57;86.48;100027.69;5050832;28;20207;-72
2023/05/24 07:57:28;;;;;;;0.60;0.60;;;;;;;25.59;82.71;100032.91;5049002;28;20208;-78
2023/05/24 08:51:01;;;;;;;5.13;4.65;;;;;;;25.06;82.27;100044.16;5086373;27;21365;-72
2023/05/24 08:53:27;;;;;;;1.60;1.50;;;;;;;25.39;78.08;100039.13;5027276;28;20700;-74
2023/05/24 08:55:55;;;;;;;4.50;2.17;;;;;;;25.23;77.98;100014.19;5073576;28;20203;-71
2023/05/24 08:58:22;;;;;;;1.40;1.30;;;;;;;25.36;75.80;100043.72;5062045;28;20640;-68
2023/05/24 09:00:48;;;;;;;2.72;1.38;;;;;;;25.59;75.10;100040.88;5064080;28;20234;-68
2023/05/24 09:03:17;;;;;;;5.85;2.47;;;;;;;25.73;75.52;100040.22;5041661;28;20215;-71
2023/05/24 09:05:44;;;;;;;5.68;2.20;;;;;;;25.58;76.23;99999.31;5056266;28;20230;-72
2023/05/24 09:08:16;;;;;;;5.88;2.45;;;;;;;25.45;75.26;100027.34;5051466;28;20195;-72
2023/05/24 09:10:44;;;;;;;4.60;2.03;;;;;;;25.25;75.14;100017.66;5065716;28;20203;-72
2023/05/24 09:13:15;;;;;;;4.13;1.70;;;;;;;25.58;75.31;100031.16;5063789;28;20214;-74
2023/05/24 09:15:42;;;;;;;4.93;1.90;;;;;;;25.54;73.38;100035.75;5057492;28;20257;-73
2023/05/24 09:18:09;;;;;;;3.88;1.90;;;;;;;25.28;74.60;100017.53;5064689;28;20664;-69
2023/05/24 09:20:36;;;;;;;3.47;1.77;;;;;;;25.57;75.42;100030.34;5060888;28;20245;-71
2023/05/24 09:23:06;;;;;;;1.95;1.63;;;;;;;25.87;70.25;100035.97;5061134;28;20280;-69
2023/05/24 09:25:34;;;;;;;1.55;1.45;;;;;;;25.93;68.96;100033.03;5060864;28;20217;-68
2023/05/24 09:28:06;;;;;;;0.85;0.85;;;;;;;25.77;68.27;100020.53;5065497;28;20195;-68
2023/05/24 09:30:33;;;;;;;0.88;0.88;;;;;;;26.06;65.97;100039.44;5064643;28;20191;-71
2023/05/24 09:33:02;;;;;;;0.63;0.63;;;;;;;26.09;63.50;100036.63;5063399;28;20843;-74
2023/05/24 09:35:30;;;;;;;0.80;0.80;;;;;;;26.08;59.99;100034.03;5056718;28;20214;-72
2023/05/24 09:37:58;;;;;;;1.13;1.13;;;;;;;26.29;60.26;100032.19;5064813;28;20695;-69
2023/05/24 09:40:25;;;;;;;0.90;0.90;;;;;;;26.31;57.90;100036.47;5063194;28;20259;-69
2023/05/24 09:43:06;;;;;;;0.82;0.82;;;;;;;26.43;55.49;100019.88;5061891;28;20199;-71
2023/05/24 09:45:33;;;;;;;0.80;0.80;;;;;;;26.41;55.27;100028.88;5061501;28;20208;-71
2023/05/24 09:48:00;;;;;;;1.00;1.00;;;;;;;26.37;55.96;100032.63;5065546;28;20203;-69
2023/05/24 09:50:27;;;;;;;0.93;0.93;;;;;;;26.46;57.78;100026.84;5064464;28;20238;-70
2023/05/24 09:52:55;;;;;;;0.88;0.88;;;;;;;26.32;56.97;100034.69;5065737;28;20202;-69
2023/05/24 09:55:22;;;;;;;0.80;0.80;;;;;;;26.19;57.73;100028.22;5064659;28;20272;-71
2023/05/24 09:57:51;;;;;;;0.85;0.85;;;;;;;26.05;59.38;100036.84;5063783;28;20550;-70
2023/05/24 10:00:23;;;;;;;1.30;1.30;;;;;;;25.99;58.55;100032.72;5063157;28;20247;-70
2023/05/24 10:03:01;;;;;;;1.58;1.58;;;;;;;26.07;59.61;100025.25;5051764;28;20204;-69
2023/05/24 10:05:28;;;;;;;0.70;0.70;;;;;;;26.13;56.47;100016.09;5051845;28;20199;-74
2023/05/24 10:07:56;;;;;;;0.90;0.90;;;;;;;26.23;54.59;100020.03;5052106;28;20250;-72
2023/05/24 10:10:23;;;;;;;0.85;0.85;;;;;;;26.46;52.52;100027.72;5051118;28;20207;-70
2023/05/24 10:12:50;;;;;;;1.00;1.00;;;;;;;26.45;53.41;100006.50;5045408;28;20226;-79
2023/05/24 10:15:17;;;;;;;1.00;1.00;;;;;;;26.67;51.88;100015.13;5042250;28;20195;-76
2023/05/24 10:17:45;;;;;;;1.50;1.40;;;;;;;26.80;50.28;100021.50;5044716;28;20295;-71
2023/05/24 10:20:12;;;;;;;1.55;1.40;;;;;;;26.82;49.11;100018.78;5045704;28;20321;-74
2023/05/24 10:22:44;;;;;;;1.88;1.60;;;;;;;26.58;49.12;100015.56;5046607;28;20580;-73
2023/05/24 10:25:15;;;;;;;2.42;1.67;;;;;;;26.25;54.45;100017.31;5047279;28;20728;-74
2023/05/24 10:27:45;;;;;;;2.50;1.63;;;;;;;26.27;54.94;100002.13;5045945;28;20212;-73
2023/05/24 10:30:19;;;;;;;2.65;1.40;;;;;;;26.44;56.36;100012.75;5041039;28;20204;-71
2023/05/24 10:32:50;;;;;;;3.33;1.58;;;;;;;26.38;56.33;100003.31;5049919;28;20209;-75
2023/05/24 10:35:19;;;;;;;4.57;1.85;;;;;;;26.62;55.55;100006.50;5044207;28;20196;-75
2023/05/24 10:37:46;;;;;;;4.18;1.65;;;;;;;26.68;49.55;99990.25;5050562;28;20221;-69
2023/05/24 10:40:19;;;;;;;5.10;1.77;;;;;;;26.69;47.42;100007.91;5053233;28;20305;-70
2023/05/24 10:42:47;;;;;;;4.38;1.73;;;;;;;26.71;47.08;100010.50;5050165;28;20309;-73
2023/05/24 10:45:31;;;;;;;1.27;1.27;;;;;;;26.42;44.90;99983.59;5049055;28;20208;-72
2023/05/24 10:48:08;;;;;;;1.13;1.13;;;;;;;26.60;44.94;100003.06;5049979;28;20277;-72
2023/05/24 10:50:35;;;;;;;1.45;1.35;;;;;;;26.66;43.48;100002.75;5049587;28;20306;-70
2023/05/24 10:53:12;;;;;;;1.38;1.30;;;;;;;26.83;42.96;100004.53;5040790;28;20208;-73
2023/05/24 10:55:52;;;;;;;1.58;1.48;;;;;;;26.69;41.86;99989.28;5046834;28;20282;-71
2023/05/24 10:58:19;;;;;;;1.73;1.63;;;;;;;26.82;42.80;99990.41;5030539;28;20195;-70
2023/05/24 11:00:47;;;;;;;1.67;1.55;;;;;;;26.96;43.30;99987.88;5040645;28;20306;-71
2023/05/24 11:03:22;;;;;;;1.80;1.70;;;;;;;26.77;43.44;99989.75;5044667;28;20264;-68
2023/05/24 11:05:51;;;;;;;1.55;1.45;;;;;;;26.61;43.52;99988.84;5048823;28;20800;-72
2023/05/24 11:08:24;;;;;;;2.38;1.73;;;;;;;26.63;46.23;99987.81;5044926;28;20292;-73
2023/05/24 11:10:51;;;;;;;3.10;1.80;;;;;;;26.72;47.61;99986.44;5043353;28;20250;-72
2023/05/24 11:13:19;;;;;;;2.88;1.88;;;;;;;26.89;48.75;99983.81;5013202;28;20238;-73
2023/05/24 11:15:52;;;;;;;1.95;1.48;;;;;;;26.87;48.79;99980.34;5050231;28;20231;-71
2023/05/24 11:18:23;;;;;;;3.05;1.88;;;;;;;26.89;50.63;99967.84;5049962;28;20195;-71
2023/05/24 11:20:51;;;;;;;2.80;1.73;;;;;;;26.69;51.30;99968.00;5049884;28;20238;-75
2023/05/24 11:23:19;;;;;;;1.63;1.30;;;;;;;26.32;51.57;99970.88;5049490;28;20214;-73
2023/05/24 11:25:47;;;;;;;1.52;1.42;;;;;;;26.29;52.38;99963.06;5012908;28;20196;-74
2023/05/24 11:28:14;;;;;;;1.67;1.52;;;;;;;26.41;51.90;99962.41;5049648;28;20227;-71
2023/05/24 11:30:41;;;;;;;2.20;1.70;;;;;;;26.50;51.35;99960.16;5050259;28;20208;-72
2023/05/24 11:33:14;;;;;;;1.60;1.50;;;;;;;26.89;50.69;99961.66;5049082;28;20196;-71
2023/05/24 11:35:43;;;;;;;2.38;1.65;;;;;;;26.89;48.12;99953.66;5050146;28;20192;-72
2023/05/24 11:38:12;;;;;;;2.22;1.65;;;;;;;26.97;47.03;99959.41;5047615;28;20196;-72
2023/05/24 11:40:43;;;;;;;1.50;1.40;;;;;;;27.17;47.41;99961.00;5047779;28;20292;-72
2023/05/24 11:43:14;;;;;;;1.45;1.35;;;;;;;27.09;45.96;99953.44;5013378;28;20294;-73
2023/05/24 11:45:42;;;;;;;1.98;1.70;;;;;;;27.33;45.71;99953.88;5044316;28;20584;-72
2023/05/24 11:48:09;;;;;;;1.60;1.50;;;;;;;27.19;45.68;99954.66;5018759;28;20257;-65
2023/05/24 11:50:40;;;;;;;1.13;1.10;;;;;;;27.06;45.97;99925.19;5045529;28;20681;-64
2023/05/24 11:53:10;;;;;;;2.05;1.80;;;;;;;27.42;45.71;99948.91;5042798;28;20261;-72
2023/05/24 11:55:38;;;;;;;1.67;1.50;;;;;;;27.40;46.21;99936.59;5043941;28;20206;-71
2023/05/24 11:58:11;;;;;;;1.48;1.38;;;;;;;27.54;44.90;99950.03;5043461;28;20290;-68
2023/05/24 12:00:38;;;;;;;1.60;1.50;;;;;;;27.34;45.29;99935.16;5047905;28;20237;-72
2023/05/24 12:03:07;;;;;;;1.92;1.65;;;;;;;27.55;45.79;99930.44;5048937;28;20225;-72
2023/05/24 12:05:35;;;;;;;1.92;1.58;;;;;;;27.55;46.11;99935.78;5050512;28;20207;-73
2023/05/24 12:08:04;;;;;;;2.28;1.65;;;;;;;27.38;46.18;99909.22;5045683;28;20211;-73
2023/05/24 12:10:33;;;;;;;1.40;1.30;;;;;;;27.52;46.30;99927.97;5048528;28;20207;-73
2023/05/24 12:13:00;;;;;;;0.93;0.93;;;;;;;27.71;43.87;99925.97;5048505;28;20215;-72
2023/05/24 12:15:27;;;;;;;1.30;1.20;;;;;;;27.76;44.27;99929.22;5030993;28;20261;-73
2023/05/24 12:17:54;;;;;;;1.40;1.30;;;;;;;27.83;46.47;99916.38;5048614;28;20218;-75
2023/05/24 12:20:21;;;;;;;2.05;1.40;;;;;;;27.84;45.06;99904.78;5047875;28;20227;-74
2023/05/24 12:22:52;;;;;;;1.65;1.50;;;;;;;27.98;46.11;99919.03;5044021;28;20250;-76